createdAt,value
2018-05-01T00:02:09.450Z,12.00
2018-05-01T00:04:37.175Z,12.00
2018-05-01T00:07:04.138Z,12.00
2018-05-01T00:09:31.105Z,12.00
2018-05-01T00:11:58.072Z,12.00
2018-05-01T00:14:25.025Z,12.00
2018-05-01T00:16:52.771Z,12.00
2018-05-01T00:19:20.498Z,12.00
2018-05-01T00:21:47.454Z,12.00
2018-05-01T00:24:15.626Z,12.00
2018-05-01T00:26:43.030Z,11.90
2018-05-01T00:29:10.443Z,11.90
2018-05-01T00:31:37.851Z,11.90
2018-05-01T00:34:05.264Z,11.90
2018-05-01T00:36:32.994Z,11.90
2018-05-01T00:38:59.974Z,11.90
2018-05-01T00:41:26.942Z,11.90
2018-05-01T00:43:53.910Z,11.80
2018-05-01T00:46:21.638Z,11.80
2018-05-01T00:48:48.635Z,11.80
2018-05-01T00:51:15.595Z,11.70
2018-05-01T00:53:42.578Z,11.70
2018-05-01T00:56:09.555Z,11.60
2018-05-01T00:58:36.539Z,11.60
2018-05-01T01:01:03.490Z,11.60
2018-05-01T01:03:30.453Z,11.60
2018-05-01T01:05:57.414Z,11.60
2018-05-01T01:08:25.143Z,11.50
2018-05-01T01:10:52.543Z,11.50
2018-05-01T01:13:19.942Z,11.50
2018-05-01T01:15:48.119Z,11.10
2018-05-01T01:18:15.536Z,11.10
2018-05-01T01:20:42.942Z,10.90
2018-05-01T01:23:10.353Z,10.70
2018-05-01T01:25:37.766Z,10.50
2018-05-01T01:28:05.939Z,10.40
2018-05-01T01:30:33.355Z,10.40
2018-05-01T01:33:01.541Z,10.30
2018-05-01T01:35:28.459Z,10.30
2018-05-01T01:37:55.371Z,10.30
2018-05-01T01:40:22.295Z,10.20
2018-05-01T01:42:49.223Z,10.20
2018-05-01T01:45:16.134Z,10.10
2018-05-01T01:47:43.042Z,10.00
2018-05-01T01:50:09.957Z,9.90
2018-05-01T01:52:36.879Z,9.90
2018-05-01T01:55:03.797Z,9.80
2018-05-01T01:57:30.711Z,9.80
2018-05-01T01:59:57.631Z,9.70
2018-05-01T02:02:25.313Z,9.50
2018-05-01T02:04:52.995Z,9.40
2018-05-01T02:07:19.903Z,9.30
2018-05-01T02:09:46.828Z,9.40
2018-05-01T02:12:13.748Z,9.30
2018-05-01T02:14:40.687Z,9.30
2018-05-01T02:17:07.611Z,9.20
2018-05-01T02:19:34.706Z,9.10
2018-05-01T02:22:02.382Z,8.90
2018-05-01T02:24:29.307Z,8.90
2018-05-01T02:26:56.235Z,8.90
2018-05-01T02:29:23.914Z,8.90
2018-05-01T02:31:50.843Z,8.90
2018-05-01T02:34:17.756Z,8.90
2018-05-01T02:36:44.659Z,8.90
2018-05-01T02:39:12.335Z,8.90
2018-05-01T02:41:39.284Z,8.80
2018-05-01T02:44:06.190Z,8.80
2018-05-01T02:46:33.103Z,8.80
2018-05-01T02:49:00.774Z,8.80
2018-05-01T02:51:27.703Z,8.80
2018-05-01T02:53:54.619Z,8.90
2018-05-01T02:56:21.528Z,8.80
2018-05-01T02:58:49.201Z,8.70
2018-05-01T03:01:16.148Z,8.70
2018-05-01T03:03:43.055Z,8.70
2018-05-01T03:06:09.981Z,8.70
2018-05-01T03:08:37.665Z,8.70
2018-05-01T03:11:04.591Z,8.70
2018-05-01T03:13:31.514Z,8.60
2018-05-01T03:15:58.434Z,8.60
2018-05-01T03:18:25.367Z,8.60
2018-05-01T03:20:52.302Z,8.60
2018-05-01T03:23:19.210Z,8.60
2018-05-01T03:25:46.895Z,8.60
2018-05-01T03:28:13.813Z,8.60
2018-05-01T03:30:40.723Z,8.60
2018-05-01T03:33:07.630Z,8.60
2018-05-01T03:35:35.294Z,8.50
2018-05-01T03:38:02.218Z,8.50
2018-05-01T03:40:29.139Z,8.50
2018-05-01T03:42:56.043Z,8.50
2018-05-01T03:45:22.949Z,8.50
2018-05-01T03:47:49.882Z,8.50
2018-05-01T03:50:16.799Z,8.50
2018-05-01T03:52:43.717Z,8.40
2018-05-01T03:55:10.705Z,8.40
2018-05-01T03:57:37.547Z,8.40
2018-05-01T04:00:05.226Z,8.30
2018-05-01T04:02:32.139Z,8.30
2018-05-01T04:04:59.079Z,8.20
2018-05-01T04:07:25.998Z,8.10
2018-05-01T04:09:52.903Z,8.00
2018-05-01T04:12:20.602Z,7.90
2018-05-01T04:14:47.508Z,7.90
2018-05-01T04:17:14.414Z,7.80
2018-05-01T04:19:42.083Z,7.70
2018-05-01T04:22:08.999Z,7.70
2018-05-01T04:24:35.924Z,7.60
2018-05-01T04:27:02.831Z,7.50
2018-05-01T04:29:29.783Z,7.50
2018-05-01T04:31:57.463Z,7.50
2018-05-01T04:34:24.366Z,7.50
2018-05-01T04:36:52.046Z,7.40
2018-05-01T04:39:18.955Z,7.40
2018-05-01T04:41:45.858Z,7.40
2018-05-01T04:44:13.538Z,7.30
2018-05-01T04:46:40.451Z,7.20
2018-05-01T04:49:07.354Z,7.10
2018-05-01T04:51:35.090Z,7.10
2018-05-01T04:54:03.510Z,7.10
2018-05-01T04:56:30.422Z,7.10
2018-05-01T04:58:57.330Z,7.10
2018-05-01T05:01:24.235Z,7.20
2018-05-01T05:03:51.143Z,7.10
2018-05-01T05:06:18.055Z,7.00
2018-05-01T05:08:45.000Z,7.00
2018-05-01T05:11:11.906Z,7.10
2018-05-01T05:13:38.815Z,7.10
2018-05-01T05:16:06.494Z,7.10
2018-05-01T05:18:33.402Z,7.10
2018-05-01T05:21:00.314Z,7.20
2018-05-01T05:23:27.991Z,7.20
2018-05-01T05:25:54.899Z,7.10
2018-05-01T05:28:22.581Z,7.10
2018-05-01T05:30:49.491Z,7.10
2018-05-01T05:33:16.395Z,7.20
2018-05-01T05:35:44.083Z,7.20
2018-05-01T05:38:10.999Z,7.20
2018-05-01T05:40:37.916Z,7.30
2018-05-01T05:43:05.597Z,7.30
2018-05-01T05:45:32.502Z,7.30
2018-05-01T05:47:59.415Z,7.30
2018-05-01T05:50:27.098Z,7.30
2018-05-01T05:52:54.007Z,7.30
2018-05-01T05:55:20.926Z,7.20
2018-05-01T05:57:48.599Z,7.20
2018-05-01T06:00:15.507Z,7.20
2018-05-01T06:02:42.421Z,7.20
2018-05-01T06:05:10.093Z,7.40
2018-05-01T06:07:37.030Z,7.30
2018-05-01T06:10:04.674Z,7.40
2018-05-01T06:12:31.593Z,7.40
2018-05-01T06:14:58.507Z,7.40
2018-05-01T06:17:26.199Z,7.40
2018-05-01T06:19:53.095Z,7.40
2018-05-01T06:22:20.007Z,7.30
2018-05-01T06:24:47.687Z,7.10
2018-05-01T06:27:14.612Z,7.10
2018-05-01T06:29:41.515Z,7.20
2018-05-01T06:32:09.239Z,7.20
2018-05-01T06:34:36.160Z,7.20
2018-05-01T06:37:03.070Z,7.10
2018-05-01T06:39:29.974Z,7.00
2018-05-01T06:41:56.891Z,7.00
2018-05-01T06:44:24.559Z,7.00
2018-05-01T06:46:51.479Z,7.00
2018-05-01T06:49:18.391Z,7.10
2018-05-01T06:51:45.898Z,7.10
2018-05-01T06:54:12.606Z,7.10
2018-05-01T06:56:39.522Z,7.10
2018-05-01T06:59:06.419Z,7.20
2018-05-01T07:01:34.175Z,7.30
2018-05-01T07:04:01.078Z,7.30
2018-05-01T07:06:27.987Z,7.30
2018-05-01T07:08:54.895Z,7.40
2018-05-01T07:11:21.803Z,7.50
2018-05-01T07:13:48.727Z,7.40
2018-05-01T07:16:15.647Z,7.40
2018-05-01T07:18:43.315Z,7.50
2018-05-01T07:21:10.252Z,7.50
2018-05-01T07:23:37.147Z,7.50
2018-05-01T07:26:04.843Z,7.70
2018-05-01T07:28:31.538Z,7.70
2018-05-01T07:30:58.238Z,7.90
2018-05-01T07:33:24.943Z,8.00
2018-05-01T07:35:51.645Z,8.10
2018-05-01T07:38:18.376Z,8.40
2018-05-01T07:40:45.074Z,8.50
2018-05-01T07:43:11.790Z,8.40
2018-05-01T07:45:38.502Z,8.50
2018-05-01T07:48:05.246Z,8.50
2018-05-01T07:50:32.156Z,8.50
2018-05-01T07:52:59.823Z,8.70
2018-05-01T07:55:26.528Z,8.70
2018-05-01T07:57:53.993Z,8.60
2018-05-01T08:00:20.777Z,8.60
2018-05-01T08:02:47.447Z,8.60
2018-05-01T08:05:14.142Z,8.60
2018-05-01T08:07:40.862Z,8.60
2018-05-01T08:10:08.321Z,8.70
2018-05-01T08:12:35.068Z,8.60
2018-05-01T08:15:01.742Z,8.70
2018-05-01T08:17:29.205Z,8.70
2018-05-01T08:19:55.965Z,8.70
2018-05-01T08:22:22.670Z,8.90
2018-05-01T08:24:49.574Z,9.00
2018-05-01T08:27:17.048Z,9.60
2018-05-01T08:29:43.746Z,9.50
2018-05-01T08:32:11.214Z,9.60
2018-05-01T08:34:38.134Z,9.60
2018-05-01T08:37:05.619Z,9.50
2018-05-01T08:39:33.312Z,9.50
2018-05-01T08:42:00.978Z,9.50
2018-05-01T08:44:27.910Z,9.50
2018-05-01T08:46:54.814Z,9.40
2018-05-01T08:49:22.489Z,9.70
2018-05-01T08:51:49.394Z,9.70
2018-05-01T08:54:16.118Z,9.90
2018-05-01T08:56:43.034Z,10.10
2018-05-01T08:59:10.522Z,10.10
2018-05-01T09:01:37.224Z,10.10
2018-05-01T09:04:04.014Z,10.50
2018-05-01T09:06:31.395Z,10.30
2018-05-01T09:08:58.111Z,10.30
2018-05-01T09:11:25.024Z,10.50
2018-05-01T09:13:52.708Z,10.40
2018-05-01T09:16:19.402Z,10.40
2018-05-01T09:18:46.867Z,10.30
2018-05-01T09:21:13.575Z,10.30
2018-05-01T09:23:40.286Z,10.40
2018-05-01T09:26:07.769Z,10.60
2018-05-01T09:28:34.477Z,10.60
2018-05-01T09:31:01.218Z,10.90
2018-05-01T09:33:28.159Z,11.00
2018-05-01T09:35:55.083Z,10.80
2018-05-01T09:38:21.983Z,10.60
2018-05-01T09:40:48.698Z,10.80
2018-05-01T09:43:16.379Z,11.20
2018-05-01T09:45:43.081Z,11.10
2018-05-01T09:48:09.816Z,11.10
2018-05-01T09:50:36.706Z,11.00
2018-05-01T09:53:04.887Z,10.50
2018-05-01T09:55:31.870Z,10.50
2018-05-01T09:57:58.838Z,10.60
2018-05-01T10:00:27.011Z,10.50
2018-05-01T10:02:53.971Z,10.50
2018-05-01T10:05:21.421Z,10.60
2018-05-01T10:07:48.827Z,10.80
2018-05-01T10:10:15.801Z,10.80
2018-05-01T10:12:42.754Z,10.80
2018-05-01T10:15:09.726Z,10.70
2018-05-01T10:17:37.131Z,10.90
2018-05-01T10:20:04.526Z,11.10
2018-05-01T10:22:31.488Z,10.80
2018-05-01T10:24:58.891Z,11.10
2018-05-01T10:27:25.855Z,11.20
2018-05-01T10:29:53.275Z,11.20
2018-05-01T10:32:20.227Z,11.30
2018-05-01T10:34:47.196Z,11.30
2018-05-01T10:37:14.910Z,11.50
2018-05-01T10:39:42.310Z,11.40
2018-05-01T10:42:09.717Z,11.30
2018-05-01T10:44:37.884Z,11.30
2018-05-01T10:47:05.603Z,11.20
2018-05-01T10:49:32.570Z,11.20
2018-05-01T10:51:59.526Z,11.30
2018-05-01T10:54:26.495Z,11.50
2018-05-01T10:56:53.464Z,11.80
2018-05-01T10:59:20.863Z,11.80
2018-05-01T11:01:47.829Z,11.80
2018-05-01T11:04:14.786Z,12.10
2018-05-01T11:06:41.742Z,12.20
2018-05-01T11:09:09.150Z,12.60
2018-05-01T11:11:36.106Z,12.40
2018-05-01T11:14:03.503Z,12.50
2018-05-01T11:16:30.917Z,12.80
2018-05-01T11:18:58.331Z,13.10
2018-05-01T11:21:25.747Z,13.00
2018-05-01T11:23:53.158Z,12.60
2018-05-01T11:26:21.021Z,12.10
2018-05-01T11:28:47.930Z,12.10
2018-05-01T11:31:15.655Z,12.40
2018-05-01T11:33:42.698Z,12.30
2018-05-01T11:36:10.054Z,12.80
2018-05-01T11:38:37.438Z,13.40
2018-05-01T11:41:04.847Z,13.60
2018-05-01T11:43:32.251Z,13.50
2018-05-01T11:45:59.672Z,12.70
2018-05-01T11:48:27.084Z,12.60
2018-05-01T11:50:54.490Z,12.90
2018-05-01T11:53:21.902Z,12.60
2018-05-01T11:55:49.347Z,12.30
2018-05-01T11:58:16.702Z,12.40
2018-05-01T12:00:44.112Z,12.60
2018-05-01T12:03:11.074Z,12.80
2018-05-01T12:05:38.479Z,12.80
2018-05-01T12:08:05.435Z,12.70
2018-05-01T12:10:32.423Z,12.80
2018-05-01T12:13:00.138Z,13.70
2018-05-01T12:15:27.878Z,14.30
2018-05-01T12:17:55.280Z,14.30
2018-05-01T12:20:22.688Z,14.80
2018-05-01T12:22:50.087Z,14.40
2018-05-01T12:25:17.586Z,14.50
2018-05-01T12:27:44.983Z,14.40
2018-05-01T12:30:12.387Z,14.40
2018-05-01T12:32:39.346Z,14.70
2018-05-01T12:35:06.747Z,15.20
2018-05-01T12:37:33.702Z,14.90
2018-05-01T12:40:01.130Z,14.80
2018-05-01T12:42:28.212Z,14.70
2018-05-01T12:44:55.575Z,14.90
2018-05-01T12:47:23.001Z,14.90
2018-05-01T12:49:50.711Z,16.00
2018-05-01T12:52:17.681Z,16.00
2018-05-01T12:54:45.839Z,14.50
2018-05-01T12:57:14.017Z,13.90
2018-05-01T12:59:41.431Z,13.80
2018-05-01T13:02:09.594Z,14.50
2018-05-01T13:04:37.772Z,14.20
2018-05-01T13:07:04.727Z,14.20
2018-05-01T13:09:32.126Z,14.90
2018-05-01T13:11:59.851Z,16.70
2018-05-01T13:14:26.818Z,16.70
2018-05-01T13:16:53.774Z,16.50
2018-05-01T13:19:20.734Z,16.80
2018-05-01T13:21:47.702Z,17.30
2018-05-01T13:24:15.112Z,17.30
2018-05-01T13:26:42.833Z,17.00
2018-05-01T13:29:09.786Z,17.00
2018-05-01T13:31:36.754Z,17.40
2018-05-01T13:34:03.710Z,17.60
2018-05-01T13:36:30.670Z,18.40
2018-05-01T13:38:58.069Z,18.30
2018-05-01T13:41:25.026Z,17.60
2018-05-01T13:43:51.990Z,17.60
2018-05-01T13:46:18.952Z,18.10
2018-05-01T13:48:45.910Z,18.60
2018-05-01T13:51:13.465Z,18.10
2018-05-01T13:53:40.866Z,18.10
2018-05-01T13:56:08.285Z,17.20
2018-05-01T13:58:36.006Z,17.10
2018-05-01T14:01:02.958Z,17.10
2018-05-01T14:03:31.132Z,15.90
2018-05-01T14:05:58.861Z,16.50
2018-05-01T14:08:26.267Z,16.60
2018-05-01T14:10:53.230Z,17.30
2018-05-01T14:13:20.247Z,17.40
2018-05-01T14:15:47.653Z,17.80
2018-05-01T14:18:14.614Z,17.70
2018-05-01T14:20:42.035Z,18.00
2018-05-01T14:23:09.016Z,17.10
2018-05-01T14:25:37.252Z,16.20
2018-05-01T14:28:05.359Z,15.90
2018-05-01T14:30:32.326Z,15.90
2018-05-01T14:32:59.286Z,15.50
2018-05-01T14:35:26.686Z,15.80
2018-05-01T14:37:54.115Z,16.00
2018-05-01T14:40:21.104Z,16.20
2018-05-01T14:42:48.485Z,17.10
2018-05-01T14:45:15.449Z,17.10
2018-05-01T18:41:29.929Z,11.80
2018-05-01T19:38:41.230Z,10.70
2018-05-01T19:43:39.212Z,10.60
2018-05-01T19:46:08.017Z,10.60
2018-05-01T19:48:36.863Z,10.60
2018-05-01T19:51:05.660Z,10.60
2018-05-01T19:53:34.423Z,10.50
2018-05-01T19:56:03.199Z,10.50
2018-05-01T19:58:31.999Z,10.50
2018-05-01T20:01:00.790Z,10.50
2018-05-01T20:03:29.584Z,10.50
2018-05-01T23:14:57.264Z,7.80
